KSTP

St Paul Downtown Holman Field Airport

St Paul, Minnesota, USA
METAR KSTP 141153Z AUTO 18005KT 4SM BR OVC003 M03/M04 A3020 RMK AO2 SLP233 I6000 T10331044 11011 21033 53001
Observed Flight Rules
Dec-14 @ 11:53 UTC (26 minutes ago) Instrument Flight Rules
Wind Visibility Clouds Conditions
180° at 5 knots 4 miles
  • Overcast at 300' AGL
  • Mist
Temperatures Readings
Current -3°C / 27°F
Dewpoint -4°C / 25°F
Humidity 93%
Altimeter 30.2" Hg
Pressure 1023.3 hPa
Elevation 219
METAR KSTP 141153Z AUTO 18005KT 4SM BR OVC003 M03/M04 A3020 RMK AO2 SLP233 I6000 T10331044 11011 21033 53001
Observed Flight Rules
Dec-14 @ 11:53 UTC
(26 minutes ago)
LIFR
Wind Visibility
180° at 5 knots 4 miles
Clouds
  • Overcast at 300' AGL
Conditions
  • Mist
Temperature Dewpoint
-3°C / 27°F -4°C / 25°F
Humidity Altimeter Pressure
93% 30.2" Hg 1023.3 hPa